createdAt,value
2023-03-26T00:01:39.061Z,96690.44
2023-03-26T00:04:07.633Z,96685.97
2023-03-26T00:06:40.012Z,96685.81
2023-03-26T00:09:09.580Z,96691.59
2023-03-26T00:11:36.662Z,96693.75
2023-03-26T00:14:03.984Z,96689.94
2023-03-26T00:16:32.332Z,96701.84
2023-03-26T00:19:01.484Z,96697.88
2023-03-26T00:21:30.493Z,96698.53
2023-03-26T00:24:05.056Z,96709.81
2023-03-26T00:26:37.857Z,96710.78
2023-03-26T00:29:07.154Z,96715.56
2023-03-26T00:31:34.677Z,96711.44
2023-03-26T00:34:03.997Z,96714.06
2023-03-26T00:36:31.222Z,96703.84
2023-03-26T00:38:58.294Z,96701.19
2023-03-26T00:41:27.185Z,96706.31
2023-03-26T00:43:57.417Z,96696.53
2023-03-26T00:46:26.070Z,96709.44
2023-03-26T00:48:53.465Z,96696.53
2023-03-26T00:51:21.577Z,96685.75
2023-03-26T00:53:49.750Z,96695.00
2023-03-26T00:56:17.464Z,96705.47
2023-03-26T00:58:44.842Z,96702.94
2023-03-26T01:01:16.715Z,96706.44
2023-03-26T01:04:00.835Z,96706.75
2023-03-26T01:06:36.766Z,96709.75
2023-03-26T01:09:17.374Z,96722.97
2023-03-26T01:11:46.190Z,96705.16
2023-03-26T01:14:20.666Z,96692.22
2023-03-26T01:16:59.283Z,96697.34
2023-03-26T01:19:50.845Z,96703.94
2023-03-26T01:22:28.798Z,96699.13
2023-03-26T01:24:56.938Z,96694.19
2023-03-26T01:27:30.134Z,96688.56
2023-03-26T01:30:08.538Z,96701.97
2023-03-26T01:33:14.796Z,96694.22
2023-03-26T01:36:09.691Z,96683.13
2023-03-26T01:38:46.966Z,96688.28
2023-03-26T01:41:37.572Z,96685.75
2023-03-26T01:44:13.714Z,96691.38
2023-03-26T01:46:42.077Z,96687.56
2023-03-26T01:49:13.514Z,96678.81
2023-03-26T01:51:42.606Z,96675.66
2023-03-26T01:54:15.146Z,96669.38
2023-03-26T01:56:53.487Z,96668.75
2023-03-26T01:59:47.620Z,96667.72
2023-03-26T02:02:22.021Z,96671.34
2023-03-26T02:04:58.115Z,96674.66
2023-03-26T02:07:34.804Z,96662.78
2023-03-26T02:10:14.722Z,96664.28
2023-03-26T02:12:45.175Z,96656.34
2023-03-26T02:15:13.491Z,96647.22
2023-03-26T02:17:40.886Z,96652.00
2023-03-26T02:20:14.533Z,96652.00
2023-03-26T02:22:46.003Z,96650.84
2023-03-26T02:25:21.446Z,96646.22
2023-03-26T02:27:50.016Z,96641.09
2023-03-26T02:30:22.056Z,96636.63
2023-03-26T02:32:52.559Z,96634.66
2023-03-26T02:35:21.056Z,96637.31
2023-03-26T02:37:51.217Z,96625.41
2023-03-26T02:40:21.452Z,96626.41
2023-03-26T02:42:49.651Z,96621.09
2023-03-26T02:45:17.798Z,96609.03
2023-03-26T02:47:47.957Z,96613.00
2023-03-26T02:50:16.967Z,96604.91
2023-03-26T02:52:45.697Z,96598.28
2023-03-26T02:55:13.053Z,96599.09
2023-03-26T02:57:40.100Z,96608.03
2023-03-26T03:00:17.720Z,96608.19
2023-03-26T03:02:45.040Z,96603.56
2023-03-26T03:05:12.403Z,96599.09
2023-03-26T03:07:40.481Z,96601.09
2023-03-26T03:10:14.252Z,96594.13
2023-03-26T03:12:45.228Z,96596.13
2023-03-26T03:15:13.408Z,96594.28
2023-03-26T03:17:40.996Z,96588.19
2023-03-26T03:20:16.229Z,96583.03
2023-03-26T03:22:43.665Z,96578.41
2023-03-26T03:25:14.708Z,96565.19
2023-03-26T03:27:43.107Z,96566.50
2023-03-26T03:30:12.583Z,96564.34
2023-03-26T03:32:39.653Z,96561.72
2023-03-26T03:35:07.708Z,96562.19
2023-03-26T03:37:34.973Z,96561.88
2023-03-26T03:40:02.528Z,96555.59
2023-03-26T03:42:29.780Z,96549.97
2023-03-26T03:44:56.840Z,96549.31
2023-03-26T03:47:23.913Z,96558.25
2023-03-26T03:49:51.522Z,96553.94
2023-03-26T03:52:18.746Z,96558.91
2023-03-26T03:54:45.932Z,96551.28
2023-03-26T03:57:12.986Z,96542.38
2023-03-26T03:59:48.040Z,96550.63
2023-03-26T04:02:26.746Z,96551.28
2023-03-26T04:04:54.805Z,96548.81
2023-03-26T04:07:22.166Z,96546.31
2023-03-26T04:09:49.823Z,96539.22
2023-03-26T04:12:17.490Z,96541.69
2023-03-26T04:14:44.715Z,96543.84
2023-03-26T04:17:13.890Z,96539.53
2023-03-26T04:19:41.393Z,96543.84
2023-03-26T04:22:09.901Z,96538.38
2023-03-26T04:24:43.065Z,96541.34
2023-03-26T04:27:16.320Z,96543.34
2023-03-26T04:29:45.872Z,96543.34
2023-03-26T04:32:22.338Z,96531.09
2023-03-26T04:34:49.483Z,96533.59
2023-03-26T04:37:28.531Z,96533.75
2023-03-26T04:39:55.517Z,96530.44
2023-03-26T04:42:22.739Z,96534.91
2023-03-26T04:44:52.839Z,96529.44
2023-03-26T04:47:23.742Z,96529.44
2023-03-26T04:49:50.902Z,96529.44
2023-03-26T04:52:20.343Z,96524.47
2023-03-26T04:54:50.649Z,96520.84
2023-03-26T04:57:33.056Z,96515.88
2023-03-26T05:00:13.786Z,96512.25
2023-03-26T05:02:42.168Z,96512.25
2023-03-26T05:05:11.004Z,96522.00
2023-03-26T05:07:58.416Z,96517.53
2023-03-26T05:10:28.467Z,96506.94
2023-03-26T05:12:57.197Z,96512.25
2023-03-26T05:15:24.780Z,96499.34
2023-03-26T05:18:00.866Z,96496.88
2023-03-26T05:20:30.540Z,96481.00
2023-03-26T05:22:58.014Z,96478.19
2023-03-26T05:25:25.059Z,96478.34
2023-03-26T05:27:52.133Z,96470.56
2023-03-26T05:30:21.733Z,96466.41
2023-03-26T05:32:49.581Z,96468.88
2023-03-26T05:35:17.487Z,96473.50
2023-03-26T05:37:56.683Z,96462.78
2023-03-26T05:40:23.992Z,96465.28
2023-03-26T05:42:51.775Z,96461.66
2023-03-26T05:45:27.614Z,96457.34
2023-03-26T05:47:56.166Z,96447.72
2023-03-26T05:50:25.356Z,96435.50
2023-03-26T05:52:54.277Z,96442.44
2023-03-26T05:55:26.574Z,96427.72
2023-03-26T05:57:54.568Z,96418.78
2023-03-26T06:00:22.062Z,96424.78
2023-03-26T06:02:56.492Z,96423.25
2023-03-26T06:05:24.292Z,96437.00
2023-03-26T06:07:57.958Z,96426.44
2023-03-26T06:10:25.594Z,96424.09
2023-03-26T06:12:55.495Z,96432.03
2023-03-26T06:15:32.203Z,96419.63
2023-03-26T06:18:02.106Z,96410.69
2023-03-26T06:20:29.433Z,96422.97
2023-03-26T06:23:05.754Z,96425.59
2023-03-26T06:25:36.534Z,96412.38
2023-03-26T06:28:09.726Z,96409.72
2023-03-26T06:30:40.561Z,96406.41
2023-03-26T06:33:13.922Z,96404.56
2023-03-26T06:35:45.670Z,96399.44
2023-03-26T06:38:13.585Z,96394.81
2023-03-26T06:40:40.728Z,96393.03
2023-03-26T06:43:10.832Z,96393.84
2023-03-26T06:45:38.848Z,96408.75
2023-03-26T06:48:06.069Z,96398.16
2023-03-26T06:50:33.467Z,96392.88
2023-03-26T06:53:00.624Z,96394.53
2023-03-26T06:55:27.941Z,96389.53
2023-03-26T06:57:58.441Z,96386.75
2023-03-26T07:00:26.036Z,96380.31
2023-03-26T07:02:53.220Z,96380.63
2023-03-26T07:05:20.337Z,96385.75
2023-03-26T07:07:50.042Z,96378.66
2023-03-26T07:10:17.231Z,96365.59
2023-03-26T07:12:44.459Z,96364.59
2023-03-26T07:15:11.859Z,96373.03
2023-03-26T07:17:38.997Z,96366.09
2023-03-26T07:20:08.289Z,96353.84
2023-03-26T07:22:35.695Z,96358.97
2023-03-26T07:25:03.551Z,96356.50
2023-03-26T07:27:42.648Z,96350.53
2023-03-26T07:30:15.178Z,96339.63
2023-03-26T07:32:48.214Z,96343.09
2023-03-26T07:35:28.859Z,96327.06
2023-03-26T07:38:14.557Z,96326.25
2023-03-26T07:40:52.422Z,96308.38
2023-03-26T07:43:25.308Z,96307.56
2023-03-26T07:45:54.704Z,96301.28
2023-03-26T07:48:27.947Z,96294.16
2023-03-26T07:50:56.052Z,96291.69
2023-03-26T07:53:29.205Z,96291.03
2023-03-26T07:56:14.673Z,96284.56
2023-03-26T07:59:06.166Z,96281.09
2023-03-26T08:01:42.473Z,96281.09
2023-03-26T08:04:23.157Z,96279.63
2023-03-26T08:07:01.404Z,96283.75
2023-03-26T08:09:54.872Z,96279.28
2023-03-26T08:12:53.001Z,96280.28
2023-03-26T08:15:32.956Z,96276.63
2023-03-26T08:18:03.436Z,96270.50
2023-03-26T08:20:51.875Z,96268.38
2023-03-26T08:23:36.637Z,96263.09
2023-03-26T08:26:59.599Z,96261.25
2023-03-26T08:29:46.864Z,96249.03
2023-03-26T08:32:20.675Z,96231.34
2023-03-26T08:34:47.810Z,96228.88
2023-03-26T08:37:15.297Z,96215.66
2023-03-26T08:39:42.749Z,96226.22
2023-03-26T08:43:03.789Z,96220.75
2023-03-26T08:46:03.846Z,96218.13
2023-03-26T08:48:58.110Z,96214.66
2023-03-26T08:51:43.590Z,96197.13
2023-03-26T08:54:32.644Z,96185.56
2023-03-26T08:57:21.269Z,96188.38
2023-03-26T08:59:54.438Z,96187.53
2023-03-26T09:02:33.440Z,96183.22
2023-03-26T09:05:00.487Z,96181.44
2023-03-26T09:07:47.536Z,96176.13
2023-03-26T09:10:46.107Z,96170.00
2023-03-26T09:13:31.151Z,96179.09
2023-03-26T09:16:08.085Z,96184.06
2023-03-26T09:19:10.358Z,96176.97
2023-03-26T09:22:06.797Z,96161.56
2023-03-26T09:25:04.403Z,96157.63
2023-03-26T09:28:08.347Z,96158.75
2023-03-26T09:30:53.820Z,96147.22
2023-03-26T09:33:52.449Z,96142.75
2023-03-26T09:36:46.588Z,96138.59
2023-03-26T09:39:21.194Z,96150.84
2023-03-26T09:42:31.649Z,96154.31
2023-03-26T09:45:22.904Z,96153.69
2023-03-26T09:48:16.667Z,96151.84
2023-03-26T09:51:13.917Z,96156.63
2023-03-26T09:54:13.094Z,96158.63
2023-03-26T09:56:42.730Z,96157.13
2023-03-26T09:59:30.942Z,96150.84
2023-03-26T10:02:46.907Z,96158.13
2023-03-26T10:05:30.848Z,96158.13
2023-03-26T10:08:25.785Z,96150.84
2023-03-26T10:10:58.991Z,96154.16
2023-03-26T10:13:26.038Z,96155.97
2023-03-26T10:16:08.452Z,96143.56
2023-03-26T10:19:16.973Z,96150.50
2023-03-26T10:22:21.520Z,96153.16
2023-03-26T10:25:06.259Z,96154.16
2023-03-26T10:27:59.266Z,96165.06
2023-03-26T10:30:55.044Z,96161.09
2023-03-26T10:33:52.505Z,96156.16
2023-03-26T10:36:34.086Z,96162.91
2023-03-26T10:39:03.873Z,96162.75
2023-03-26T10:41:51.841Z,96162.41
2023-03-26T10:44:45.138Z,96152.66
2023-03-26T10:47:28.396Z,96148.53
2023-03-26T10:50:16.073Z,96150.19
2023-03-26T10:53:14.610Z,96147.34
2023-03-26T10:55:46.961Z,96145.72
2023-03-26T10:58:29.504Z,96139.13
2023-03-26T11:01:42.400Z,96145.53
2023-03-26T11:04:36.942Z,96149.19
2023-03-26T11:07:16.971Z,96147.88
2023-03-26T11:10:08.964Z,96137.94
2023-03-26T11:12:58.658Z,96127.38
2023-03-26T11:15:40.864Z,96121.59
2023-03-26T11:18:30.358Z,96106.22
2023-03-26T11:21:18.479Z,96104.22
2023-03-26T11:24:06.464Z,96094.16
2023-03-26T11:27:14.866Z,96099.41
2023-03-26T11:30:27.038Z,96095.34
2023-03-26T11:32:59.598Z,96102.78
2023-03-26T11:35:40.107Z,96082.47
2023-03-26T11:38:20.708Z,96085.00
2023-03-26T11:40:53.506Z,96084.16
2023-03-26T11:43:26.482Z,96082.00
2023-03-26T11:45:54.312Z,96085.81
2023-03-26T11:48:31.802Z,96087.78
2023-03-26T11:51:12.060Z,96067.91
2023-03-26T11:53:40.334Z,96068.69
2023-03-26T11:56:21.641Z,96055.44
2023-03-26T11:59:11.803Z,96055.16
2023-03-26T12:01:55.723Z,96042.25
2023-03-26T12:04:36.121Z,96040.91
2023-03-26T12:07:22.730Z,96039.63
2023-03-26T12:09:51.804Z,96022.28
2023-03-26T12:12:19.684Z,95997.66
2023-03-26T12:14:47.950Z,96008.69
2023-03-26T12:17:31.182Z,96000.28
2023-03-26T12:19:59.356Z,96007.41
2023-03-26T12:22:38.053Z,96019.97
2023-03-26T12:25:16.941Z,96026.44
2023-03-26T12:28:06.249Z,96011.41
2023-03-26T12:30:36.087Z,96024.09
2023-03-26T12:33:27.649Z,96017.28
2023-03-26T12:35:58.178Z,96021.56
2023-03-26T12:38:33.609Z,96022.88
2023-03-26T12:43:40.481Z,96012.41
2023-03-26T12:44:54.549Z,96009.03
2023-03-26T12:47:58.245Z,96006.28
2023-03-26T12:49:35.360Z,96002.94
2023-03-26T12:52:21.266Z,95992.88
2023-03-26T12:54:54.083Z,95988.94
2023-03-26T12:57:26.802Z,95987.69
2023-03-26T13:00:21.659Z,95981.56
2023-03-26T13:03:13.387Z,95964.31
2023-03-26T13:06:10.179Z,95964.31
2023-03-26T13:08:57.980Z,95966.78
2023-03-26T13:11:39.769Z,95962.59
2023-03-26T13:14:06.817Z,95968.34
2023-03-26T13:17:13.510Z,95961.00
2023-03-26T13:19:58.047Z,95955.34
2023-03-26T13:22:38.090Z,95954.00
2023-03-26T13:25:29.029Z,95949.88
2023-03-26T13:28:19.885Z,95939.13
2023-03-26T13:31:00.759Z,95935.81
2023-03-26T13:34:12.278Z,95935.19
2023-03-26T13:36:51.324Z,95939.47
2023-03-26T13:39:29.178Z,95932.81
2023-03-26T13:42:18.660Z,95920.59
2023-03-26T13:45:06.662Z,95917.03
2023-03-26T13:47:45.979Z,95906.09
2023-03-26T13:50:31.109Z,95917.41
2023-03-26T13:53:11.087Z,95912.47
2023-03-26T13:55:42.693Z,95902.16
2023-03-26T13:58:23.991Z,95891.84
2023-03-26T14:01:09.596Z,95887.47
2023-03-26T14:04:03.637Z,95881.81
2023-03-26T14:06:57.652Z,95875.50
2023-03-26T14:09:48.550Z,95870.94
2023-03-26T14:12:49.075Z,95874.88
2023-03-26T14:15:27.121Z,95872.75
2023-03-26T14:17:58.072Z,95861.16
2023-03-26T14:20:49.544Z,95864.34
2023-03-26T14:23:47.686Z,95859.53
2023-03-26T14:26:26.974Z,95855.31
2023-03-26T14:29:28.367Z,95854.69
2023-03-26T14:32:24.611Z,95849.22
2023-03-26T14:35:13.370Z,95848.72
2023-03-26T14:37:59.488Z,95842.41
2023-03-26T14:40:58.597Z,95838.91
2023-03-26T14:43:49.365Z,95827.16
2023-03-26T14:46:29.812Z,95827.22
2023-03-26T14:48:59.614Z,95828.78
2023-03-26T14:51:54.790Z,95830.06
2023-03-26T14:54:27.201Z,95833.38
2023-03-26T14:57:25.084Z,95823.09
2023-03-26T15:00:16.033Z,95838.13
2023-03-26T15:03:09.942Z,95834.84
2023-03-26T15:05:46.597Z,95836.03
2023-03-26T15:08:37.761Z,95838.69
2023-03-26T15:11:27.950Z,95831.09
2023-03-26T15:14:32.198Z,95833.84
2023-03-26T15:17:26.060Z,95828.78
2023-03-26T15:20:31.973Z,95836.47
2023-03-26T15:23:20.040Z,95847.09
2023-03-26T15:26:10.080Z,95841.88
2023-03-26T15:29:04.088Z,95841.88
2023-03-26T15:31:50.101Z,95842.75
2023-03-26T15:34:44.080Z,95853.41
2023-03-26T15:37:43.761Z,95849.00
2023-03-26T15:40:36.491Z,95851.72
2023-03-26T15:43:07.054Z,95854.22
2023-03-26T15:45:37.225Z,95855.69
2023-03-26T15:48:13.045Z,95844.69
2023-03-26T15:51:01.752Z,95836.97
2023-03-26T15:53:39.631Z,95841.88
2023-03-26T15:56:22.280Z,95834.50
2023-03-26T15:59:05.444Z,95833.91
2023-03-26T16:01:45.729Z,95837.06
2023-03-26T16:04:22.692Z,95840.91
2023-03-26T16:07:29.253Z,95826.84
2023-03-26T16:10:00.943Z,95836.63
2023-03-26T16:12:36.827Z,95826.78
2023-03-26T16:15:07.524Z,95838.31
2023-03-26T16:18:15.692Z,95838.06
2023-03-26T16:20:54.285Z,95830.94
2023-03-26T16:23:32.263Z,95833.22
2023-03-26T16:26:05.233Z,95834.03
2023-03-26T16:28:58.263Z,95827.09
2023-03-26T16:31:38.120Z,95828.28
2023-03-26T16:34:06.014Z,95832.13
2023-03-26T16:36:37.184Z,95827.41
2023-03-26T16:39:04.745Z,95828.78
2023-03-26T16:41:56.569Z,95831.00
2023-03-26T16:44:53.458Z,95832.19
2023-03-26T16:47:42.002Z,95828.28
2023-03-26T16:50:34.504Z,95815.41
2023-03-26T16:53:20.173Z,95806.81
2023-03-26T16:56:02.966Z,95810.03
2023-03-26T16:58:48.175Z,95808.41
2023-03-26T17:01:28.410Z,95804.31
2023-03-26T17:04:05.804Z,95803.72
2023-03-26T17:07:01.923Z,95792.53
2023-03-26T17:09:34.525Z,95793.53
2023-03-26T17:12:15.019Z,95802.28
2023-03-26T17:14:55.808Z,95813.72
2023-03-26T17:17:39.490Z,95814.50
2023-03-26T17:20:33.660Z,95807.59
2023-03-26T17:23:09.625Z,95810.44
2023-03-26T17:25:57.978Z,95822.03
2023-03-26T17:28:50.504Z,95817.75
2023-03-26T17:31:43.125Z,95808.16
2023-03-26T17:34:33.589Z,95808.16
2023-03-26T17:37:03.780Z,95811.81
2023-03-26T17:39:39.250Z,95813.84
2023-03-26T17:42:13.371Z,95811.75
2023-03-26T17:44:53.822Z,95812.47
2023-03-26T17:47:54.130Z,95798.19
2023-03-26T17:50:26.749Z,95826.44
2023-03-26T17:53:07.687Z,95825.09
2023-03-26T17:55:37.896Z,95812.06
2023-03-26T17:58:22.792Z,95806.53
2023-03-26T18:01:03.205Z,95816.47
2023-03-26T18:03:35.633Z,95818.03
2023-03-26T18:06:14.724Z,95829.03
2023-03-26T18:09:24.820Z,95832.31
2023-03-26T18:11:54.318Z,95837.03
2023-03-26T18:14:51.586Z,95832.84
2023-03-26T18:17:19.067Z,95834.03
2023-03-26T18:19:52.659Z,95843.00
2023-03-26T18:22:28.268Z,95843.72
2023-03-26T18:24:59.905Z,95846.00
2023-03-26T18:27:33.474Z,95852.09
2023-03-26T18:30:04.080Z,95860.44
2023-03-26T18:32:33.795Z,95858.16
2023-03-26T18:35:30.950Z,95870.56
2023-03-26T18:38:00.454Z,95873.59
2023-03-26T18:40:34.701Z,95881.44
2023-03-26T18:43:01.688Z,95881.91
2023-03-26T18:45:32.311Z,95879.06
2023-03-26T18:48:22.703Z,95875.59
2023-03-26T18:51:05.992Z,95875.59
2023-03-26T18:53:40.129Z,95880.69
2023-03-26T18:56:31.949Z,95883.72
2023-03-26T18:58:59.972Z,95873.13
2023-03-26T19:01:33.386Z,95880.63
2023-03-26T19:04:05.974Z,95883.06
2023-03-26T19:06:38.510Z,95890.84
2023-03-26T19:09:19.535Z,95889.56
2023-03-26T19:11:57.265Z,95895.50
2023-03-26T19:14:28.754Z,95901.63
2023-03-26T19:17:01.492Z,95909.09
2023-03-26T19:19:34.216Z,95908.28
2023-03-26T19:22:02.940Z,95898.97
2023-03-26T19:24:30.495Z,95889.75
2023-03-26T19:26:57.953Z,95897.31
2023-03-26T19:29:33.401Z,95897.31
2023-03-26T19:32:17.229Z,95893.94
2023-03-26T19:34:47.092Z,95900.44
2023-03-26T19:37:25.485Z,95905.44
2023-03-26T19:40:02.346Z,95900.34
2023-03-26T19:42:43.009Z,95893.13
2023-03-26T19:45:34.194Z,95896.31
2023-03-26T19:48:14.351Z,95898.13
2023-03-26T19:50:44.076Z,95895.66
2023-03-26T19:53:22.213Z,95900.34
2023-03-26T19:55:57.667Z,95906.06
2023-03-26T19:58:27.698Z,95897.41
2023-03-26T20:03:46.544Z,95901.69
2023-03-26T20:06:16.577Z,95912.19
2023-03-26T20:08:44.592Z,95915.47
2023-03-26T20:11:26.125Z,95919.94
2023-03-26T20:13:53.581Z,95918.66
2023-03-26T20:16:26.225Z,95913.13
2023-03-26T20:18:57.374Z,95908.06
2023-03-26T20:21:25.986Z,95917.94
2023-03-26T20:23:55.947Z,95917.47
2023-03-26T20:26:24.281Z,95920.13
2023-03-26T20:28:53.529Z,95915.31
2023-03-26T20:31:23.515Z,95915.66
2023-03-26T20:33:52.101Z,95926.59
2023-03-26T20:36:34.194Z,95927.13
2023-03-26T20:39:06.265Z,95931.44
2023-03-26T20:41:35.000Z,95934.00
2023-03-26T20:44:05.264Z,95931.34
2023-03-26T20:46:33.487Z,95938.94
2023-03-26T20:49:00.702Z,95932.47
2023-03-26T20:51:30.562Z,95928.72
2023-03-26T20:53:57.609Z,95920.50
2023-03-26T20:56:24.893Z,95915.66
2023-03-26T20:59:09.964Z,95916.84
2023-03-26T21:04:32.428Z,95917.66
2023-03-26T21:07:07.118Z,95915.91
2023-03-26T21:09:39.079Z,95913.63
2023-03-26T21:12:08.229Z,95921.84
2023-03-26T21:14:41.788Z,95921.56
2023-03-26T21:17:16.827Z,95934.78
2023-03-26T21:19:44.612Z,95931.69
2023-03-26T21:22:36.147Z,95927.22
2023-03-26T21:25:26.013Z,95931.50
2023-03-26T21:28:07.947Z,95922.28
2023-03-26T21:30:35.442Z,95924.28
2023-03-26T21:33:05.463Z,95925.34
2023-03-26T21:35:34.950Z,95925.69
2023-03-26T21:38:05.043Z,95937.91
2023-03-26T21:40:32.329Z,95921.88
2023-03-26T21:42:59.587Z,95927.53
2023-03-26T21:45:26.993Z,95931.63
2023-03-26T21:47:57.537Z,95929.31
2023-03-26T21:50:24.808Z,95932.66
2023-03-26T21:52:52.609Z,95931.81
2023-03-26T21:55:22.032Z,95930.00
2023-03-26T21:58:19.811Z,95932.97
2023-03-26T22:01:06.648Z,95934.56
2023-03-26T22:03:55.219Z,95937.22
2023-03-26T22:06:43.097Z,95933.31
2023-03-26T22:09:12.929Z,95932.84
2023-03-26T22:11:42.296Z,95937.94
2023-03-26T22:14:09.558Z,95941.72
2023-03-26T22:16:36.469Z,95940.25
2023-03-26T22:19:03.407Z,95939.88
2023-03-26T22:21:30.854Z,95942.72
2023-03-26T22:23:57.919Z,95936.59
2023-03-26T22:26:25.402Z,95940.13
2023-03-26T22:28:52.379Z,95939.47
2023-03-26T22:31:19.446Z,95946.88
2023-03-26T22:33:46.615Z,95938.25
2023-03-26T22:36:22.782Z,95930.53
2023-03-26T22:38:54.107Z,95947.88
2023-03-26T22:41:22.189Z,95945.88
2023-03-26T22:43:52.202Z,95945.53
2023-03-26T22:46:20.031Z,95940.59
2023-03-26T22:48:48.588Z,95940.06
2023-03-26T22:51:16.482Z,95945.84
2023-03-26T22:53:43.949Z,95945.19
2023-03-26T22:56:12.374Z,95935.78
2023-03-26T22:58:39.408Z,95938.78
2023-03-26T23:01:08.447Z,95940.88
2023-03-26T23:03:37.245Z,95934.59
2023-03-26T23:06:07.171Z,95938.91
2023-03-26T23:08:35.272Z,95934.78
2023-03-26T23:11:02.692Z,95934.59
2023-03-26T23:13:30.059Z,95934.47
2023-03-26T23:16:06.245Z,95927.66
2023-03-26T23:18:34.077Z,95919.91
2023-03-26T23:21:01.093Z,95926.09
2023-03-26T23:23:31.251Z,95930.50
2023-03-26T23:26:01.570Z,95932.66
2023-03-26T23:28:33.372Z,95930.84
2023-03-26T23:31:07.493Z,95937.78
2023-03-26T23:33:40.326Z,95938.25
2023-03-26T23:36:11.135Z,95942.41
2023-03-26T23:38:43.399Z,95938.84
2023-03-26T23:41:15.943Z,95942.81
2023-03-26T23:43:53.833Z,95943.28
2023-03-26T23:46:31.109Z,95939.47
2023-03-26T23:49:03.713Z,95936.19
2023-03-26T23:51:32.144Z,95938.84
2023-03-26T23:54:00.532Z,95941.34
2023-03-26T23:56:30.131Z,95940.25
2023-03-26T23:58:57.097Z,95942.53
